Time,TemperatureF,DewpointF,PressureIn,WindDirection,WindDirectionDegrees,WindSpeedMPH,WindSpeedGustMPH,Humidity,HourlyPrecipIn,Conditions,Clouds,dailyrainin,SoftwareType,DateUTC
2013-09-16 00:22:00,48.0,41.0,30.36,NNW,342,0.0,1.0,78,0.00,,,0.03,,2013-09-16 05:22:00,
2013-09-16 00:53:00,47.0,41.0,30.37,West,273,0.0,0.0,81,0.00,,,0.02,,2013-09-16 05:53:00,
2013-09-16 01:22:00,46.0,41.0,30.37,SW,232,0.0,0.0,83,0.00,,,0.02,,2013-09-16 06:22:00,
2013-09-16 01:52:00,45.0,40.0,30.38,NW,315,0.0,1.0,84,0.00,,,0.02,,2013-09-16 06:52:00,
2013-09-16 02:22:00,44.0,40.0,30.38,WNW,289,0.0,3.0,86,0.00,,,0.02,,2013-09-16 07:22:00,
2013-09-16 02:52:00,43.0,39.0,30.39,WSW,244,0.0,0.0,86,0.00,,,0.02,,2013-09-16 07:52:00,
2013-09-16 03:22:00,42.0,38.0,30.40,WSW,244,0.0,0.0,87,0.00,,,0.02,,2013-09-16 08:22:00,
2013-09-16 03:52:00,41.0,37.0,30.40,WSW,244,0.0,0.0,87,0.00,,,0.02,,2013-09-16 08:52:00,
2013-09-16 04:22:00,40.0,37.0,30.41,WSW,244,0.0,0.0,88,0.00,,,0.02,,2013-09-16 09:22:00,
2013-09-16 04:53:00,39.0,36.0,30.42,WSW,244,0.0,0.0,89,0.00,,,0.02,,2013-09-16 09:53:00,
2013-09-16 05:23:00,39.0,36.0,30.42,WSW,244,0.0,0.0,89,0.00,,,0.01,,2013-09-16 10:23:00,
2013-09-16 05:53:00,38.0,35.0,30.44,WSW,244,0.0,0.0,89,0.00,,,0.01,,2013-09-16 10:53:00,
2013-09-16 06:22:00,38.0,35.0,30.44,WSW,244,0.0,0.0,89,0.00,,,0.01,,2013-09-16 11:22:00,
2013-09-16 06:52:00,38.0,35.0,30.45,WSW,244,0.0,0.0,89,0.00,,,0.01,,2013-09-16 11:52:00,
2013-09-16 07:22:00,37.0,34.0,30.46,WSW,244,0.0,0.0,89,0.00,,,0.01,,2013-09-16 12:22:00,
2013-09-16 07:52:00,38.0,35.0,30.46,WSW,244,0.0,0.0,90,0.00,,,0.01,,2013-09-16 12:52:00,
2013-09-16 08:21:00,39.0,36.0,30.47,WSW,244,0.0,0.0,90,0.00,,,0.01,,2013-09-16 13:21:00,
2013-09-16 08:52:00,41.0,39.0,30.47,SSE,163,0.0,0.0,91,0.00,,,0.01,,2013-09-16 13:52:00,
2013-09-16 09:21:00,42.0,38.0,30.48,WSW,242,0.0,2.0,87,0.00,,,0.01,,2013-09-16 14:21:00,
2013-09-16 09:52:00,45.0,40.0,30.48,ESE,113,0.0,2.0,82,0.00,,,0.01,,2013-09-16 14:52:00,
2013-09-16 10:22:00,50.0,42.0,30.49,SSE,150,0.0,1.0,74,0.00,,,0.01,,2013-09-16 15:22:00,
2013-09-16 10:53:00,53.0,41.0,30.48,North,8,1.0,3.0,64,0.00,,,0.01,,2013-09-16 15:53:00,
2013-09-16 11:23:00,56.0,42.0,30.48,SW,231,0.0,1.0,60,0.00,,,0.01,,2013-09-16 16:23:00,
2013-09-16 11:52:00,57.0,41.0,30.47,SW,223,0.0,3.0,56,0.00,,,0.01,,2013-09-16 16:52:00,
2013-09-16 12:23:00,59.0,39.0,30.47,ENE,68,0.0,2.0,48,0.00,,,0.00,,2013-09-16 17:23:00,
2013-09-16 12:53:00,59.0,40.0,30.46,North,0,0.0,2.0,50,0.00,,,0.00,,2013-09-16 17:53:00,
2013-09-16 13:22:00,61.0,40.0,30.46,NNW,340,1.0,5.0,46,0.00,,,0.00,,2013-09-16 18:22:00,
2013-09-16 13:52:00,62.0,40.0,30.45,NE,37,1.0,2.0,44,0.00,,,0.00,,2013-09-16 18:52:00,
2013-09-16 14:22:00,63.0,40.0,30.44,East,84,0.0,2.0,42,0.00,,,0.00,,2013-09-16 19:22:00,
2013-09-16 14:53:00,62.0,37.0,30.42,NE,50,0.0,1.0,40,0.00,,,0.00,,2013-09-16 19:53:00,
2013-09-16 15:22:00,63.0,38.0,30.41,SE,138,0.0,0.0,40,0.00,,,0.00,,2013-09-16 20:22:00,
2013-09-16 15:52:00,64.0,38.0,30.40,South,173,0.0,2.0,38,0.00,,,0.00,,2013-09-16 20:52:00,
2013-09-16 16:21:00,65.0,37.0,30.39,SW,216,0.0,2.0,36,0.00,,,0.00,,2013-09-16 21:21:00,
2013-09-16 16:56:00,65.0,37.0,30.38,SE,143,0.0,1.0,35,0.00,,,0.00,,2013-09-16 21:56:00,
2013-09-16 17:24:00,66.0,37.0,30.37,SE,137,0.0,1.0,34,0.00,,,0.00,,2013-09-16 22:24:00,
2013-09-16 17:53:00,66.0,38.0,30.36,ESE,104,0.0,1.0,35,0.00,,,0.00,,2013-09-16 22:53:00,
2013-09-16 18:22:00,64.0,39.0,30.35,South,185,0.0,0.0,40,0.00,,,0.00,,2013-09-16 23:22:00,
2013-09-16 18:52:00,63.0,40.0,30.35,South,190,0.0,0.0,42,0.00,,,0.00,,2013-09-16 23:52:00,
2013-09-16 19:21:00,60.0,41.0,30.34,South,190,0.0,0.0,49,0.00,,,0.00,,2013-09-17 00:21:00,
2013-09-16 19:52:00,57.0,41.0,30.34,South,190,0.0,0.0,56,0.00,,,0.00,,2013-09-17 00:52:00,
2013-09-16 20:21:00,54.0,43.0,30.35,South,190,0.0,0.0,65,0.00,,,0.00,,2013-09-17 01:21:00,
2013-09-16 20:52:00,53.0,45.0,30.36,South,190,0.0,0.0,73,0.00,,,0.00,,2013-09-17 01:52:00,
2013-09-16 21:22:00,51.0,45.0,30.35,South,190,0.0,0.0,79,0.00,,,0.00,,2013-09-17 02:22:00,
2013-09-16 21:42:00,50.0,43.0,30.35,South,190,0.0,0.0,76,0.00,,,0.00,,2013-09-17 02:42:00,
2013-09-16 21:52:00,49.0,42.0,30.35,South,190,0.0,0.0,76,0.00,,,0.00,,2013-09-17 02:52:00,
2013-09-16 22:23:00,48.0,43.0,30.35,South,190,0.0,0.0,82,0.00,,,0.00,,2013-09-17 03:23:00,
2013-09-16 22:54:00,47.0,42.0,30.35,South,190,0.0,0.0,84,0.00,,,0.00,,2013-09-17 03:54:00,
2013-09-16 23:24:00,46.0,41.0,30.35,South,190,0.0,0.0,84,0.00,,,0.00,,2013-09-17 04:24:00,
2013-09-16 23:54:00,45.0,40.0,30.36,South,190,0.0,0.0,83,0.00,,,0.00,,2013-09-17 04:54:00,